Burlington, IA

9:01 AM CDT on August 21, 2014 (GMT -0500)
Spirit Hollow GC | Change Station
CLOSE
Current Station
Personal Weather Station
Location: Burlington, IA
Elevation: 650 ft
Nearby Weather Stations

Elev 650 ft 40.76 °N, 91.14 °W | Updated 10 seconds ago

Overcast
Overcast
76.8 °F
Feels Like 78 °F
N
7.4
Wind Variable Wind from South
Gusts 9.8 mph

Today
High -- | Low -- °F
--% Chance of Precip.
Yesterday
High -- | Low -- °F
Precip. -- in
6:20 AM 7:53 PM
Waning Crescent, 14% visible
Pressure 29.90 in
Visibility 10.0 miles
Clouds Clear
Heat Index 78 °F
Dew Point 48 °F
Humidity 36%
Rainfall 0.00 in
Snow Depth Not available.
UV 3 out of 12
Pollen 8.10 out of 12
Air Quality Not available.
Flu Activity Not available.
METAR KBRL 211353Z AUTO 20009KT 10SM -RA CLR 25/22 A2991 RMK AO2 RAB1256 SLP124 P0000 T02500217

More Conditions Fewer Conditions

Pressure 29.90 in
Visibility 10.0 miles
Clouds Clear
Heat Index 78 °F
Dew Point 48 °F
Humidity 36%
Rainfall 0.00 in
Snow Depth Not available.
UV 3 out of 12
Pollen 8.10 out of 12
Air Quality Not available.
Flu Activity Not available.
METAR KBRL 211353Z AUTO 20009KT 10SM -RA CLR 25/22 A2991 RMK AO2 RAB1256 SLP124 P0000 T02500217

More Conditions Fewer Conditions

10-Day Weather Forecast

Almanac

Astronomy

Aug. 21, 2014 Rise Set
Actual Time 6:20 AM CDT 7:53 PM CDT
Civil Twilight 5:51 AM CDT 8:22 PM CDT
Nautical Twilight 5:16 AM CDT 8:57 PM CDT
Astronomical Twilight 4:39 AM CDT 9:34 PM CDT
Moon 2:50 AM CDT 5:23 PM CDT
Length of Visible Light 14h 31m
Length of Day
13h 33m
Tomorrow will be 2m 29s shorter.
Waning Crescent, 14% of the Moon is Illuminated
Today
Waning Crescent
Aug 25
New
Sep 2
First Quarter
Sep 8
Full
Sep 15
Last Quarter

Today's Extremes

State Highs State Lows

Community

WunderPhotos

Upload Photos

1,745,925 photos uploaded!

WunderBlogs® & News

Nearby

Snow Depth

Station Depth Elevation
No new snow has been reported.

Earthquake Activity

City Distance Mag. Time & Date
No recent earthquake activity has been reported nearby.
Minimum magnitude displayed is 2.5.

Coastal Water Temperatures

Place Temperature
No Stations Reporting

Nearby Weather Stations